Time;durP1;ratioP1;P1;durP2;ratioP2;P2;SDS_P1;SDS_P2;PMS_P1;PMS_P2;Temp;Humidity;BMP_temperature;BMP_pressure;BME280_temperature;BME280_humidity;BME280_pressure;Samples;Min_cycle;Max_cycle;Signal;HPM_P1;HPM_P2
2021/09/15 00:00:57;;;;;;;17.40;11.50;;;;;;;10.34;84.63;100817.09;93765;1196;81298;-60
2021/09/15 00:03:25;;;;;;;14.80;10.90;;;;;;;10.32;84.66;100814.37;93723;1196;97396;-62
2021/09/15 00:05:30;;;;;;;15.30;10.00;;;;;;;10.31;84.62;100815.63;93651;1196;88129;-77
2021/09/15 00:07:34;;;;;;;15.30;10.10;;;;;;;10.27;84.60;100815.54;93644;1196;95334;-78
2021/09/15 00:09:38;;;;;;;17.20;9.60;;;;;;;10.24;84.59;100817.45;93670;1196;78341;-78
2021/09/15 00:11:42;;;;;;;14.20;10.10;;;;;;;10.23;84.69;100810.73;93675;1196;80969;-79
2021/09/15 00:13:49;;;;;;;17.10;10.60;;;;;;;10.22;84.73;100811.24;93626;1196;98901;-78
2021/09/15 00:15:54;;;;;;;12.90;9.70;;;;;;;10.20;84.69;100811.52;93691;1196;87541;-81
2021/09/15 00:17:58;;;;;;;12.40;9.50;;;;;;;10.18;84.72;100812.81;93680;1196;93961;-79
2021/09/15 00:20:03;;;;;;;11.80;9.10;;;;;;;10.16;84.71;100807.43;93751;1196;81138;-78
2021/09/15 00:22:07;;;;;;;16.30;10.10;;;;;;;10.16;84.69;100814.12;93737;1196;81491;-79
2021/09/15 00:24:11;;;;;;;13.10;9.50;;;;;;;10.16;84.73;100813.02;93726;1196;98269;-79
2021/09/15 00:26:16;;;;;;;13.60;9.50;;;;;;;10.14;84.78;100808.75;93657;1196;88103;-79
2021/09/15 00:28:20;;;;;;;11.90;10.50;;;;;;;10.12;84.75;100810.05;93692;1196;92149;-76
2021/09/15 00:30:24;;;;;;;13.20;9.10;;;;;;;10.11;84.74;100807.70;93671;1196;80864;-77
2021/09/15 00:32:29;;;;;;;11.00;9.10;;;;;;;10.08;84.86;100808.52;93673;1196;81438;-78
2021/09/15 00:34:33;;;;;;;10.80;9.00;;;;;;;10.07;84.83;100805.48;93704;1196;97906;-61
2021/09/15 00:36:37;;;;;;;15.10;10.30;;;;;;;10.08;84.84;100809.52;93695;1196;86465;-61
2021/09/15 00:38:44;;;;;;;10.10;9.00;;;;;;;10.10;84.86;100811.38;93658;1196;93499;-78
2021/09/15 00:40:48;;;;;;;14.80;10.00;;;;;;;10.08;84.85;100812.12;93664;1196;80912;-75
2021/09/15 00:42:52;;;;;;;13.60;9.10;;;;;;;10.07;84.83;100808.96;93701;1196;80565;-76
2021/09/15 00:44:56;;;;;;;12.20;9.20;;;;;;;10.06;84.90;100807.77;93676;1196;98492;-61
2021/09/15 00:47:00;;;;;;;14.20;9.80;;;;;;;10.04;84.89;100808.91;93733;1196;86449;-61
2021/09/15 00:49:06;;;;;;;11.50;9.30;;;;;;;10.04;84.93;100813.43;93649;1196;94372;-61
2021/09/15 00:51:12;;;;;;;12.60;9.20;;;;;;;10.03;84.94;100812.66;93714;1196;77910;-62
2021/09/15 00:53:17;;;;;;;11.10;9.10;;;;;;;10.01;85.02;100816.85;93711;1196;80812;-78
2021/09/15 00:55:21;;;;;;;12.80;8.90;;;;;;;9.99;84.95;100819.11;93663;1196;98448;-80
2021/09/15 00:57:25;;;;;;;13.40;9.40;;;;;;;9.97;84.93;100820.55;93715;1196;88393;-81
2021/09/15 00:59:29;;;;;;;11.10;8.70;;;;;;;9.98;84.93;100823.01;93713;1196;93699;-60
2021/09/15 01:01:37;;;;;;;9.90;8.40;;;;;;;9.99;85.00;100828.73;93684;1196;78516;-61
2021/09/15 01:03:41;;;;;;;10.50;9.50;;;;;;;10.03;85.14;100826.68;93691;1196;82739;-61
2021/09/15 01:05:45;;;;;;;15.30;9.80;;;;;;;10.07;85.16;100827.14;93698;1196;99232;-61
2021/09/15 01:07:50;;;;;;;21.80;9.70;;;;;;;10.09;85.23;100825.48;93677;1196;87894;-61
2021/09/15 01:09:56;;;;;;;10.00;8.40;;;;;;;10.12;85.41;100823.02;93685;1196;93408;-61
2021/09/15 01:12:01;;;;;;;12.20;10.10;;;;;;;10.19;85.49;100824.92;93677;1196;78629;-61
2021/09/15 01:14:06;;;;;;;17.00;10.20;;;;;;;10.24;85.50;100822.58;93707;1196;81045;-61
2021/09/15 01:16:10;;;;;;;13.10;10.10;;;;;;;10.31;85.53;100822.27;93693;1196;98079;-62
2021/09/15 01:18:19;;;;;;;15.50;10.20;;;;;;;10.37;85.53;100822.80;93761;1196;86717;-70
2021/09/15 01:20:26;;;;;;;12.00;10.60;;;;;;;10.43;85.53;100827.73;93678;1187;93881;-60
2021/09/15 01:22:30;;;;;;;11.90;10.60;;;;;;;10.49;85.52;100821.45;93700;1196;78730;-60
2021/09/15 01:24:36;;;;;;;12.60;11.30;;;;;;;10.54;85.59;100821.29;93698;1196;80553;-78
2021/09/15 01:26:40;;;;;;;13.50;11.30;;;;;;;10.59;85.62;100822.57;93683;1196;99199;-78
2021/09/15 01:28:48;;;;;;;13.90;10.40;;;;;;;10.61;85.68;100819.21;93709;1196;86892;-60
2021/09/15 01:30:52;;;;;;;15.30;10.60;;;;;;;10.63;85.68;100815.91;93666;1200;95453;-62
2021/09/15 01:32:56;;;;;;;13.00;9.80;;;;;;;10.64;85.60;100816.68;93665;1198;81037;-61
2021/09/15 01:35:00;;;;;;;12.20;10.30;;;;;;;10.64;85.51;100817.63;93693;1199;81735;-61
2021/09/15 01:37:07;;;;;;;13.60;10.10;;;;;;;10.63;85.41;100813.21;93699;1197;97730;-60
2021/09/15 01:39:11;;;;;;;13.70;10.20;;;;;;;10.59;85.41;100812.95;93727;1196;87729;-61
2021/09/15 01:41:15;;;;;;;12.40;10.20;;;;;;;10.57;85.37;100817.35;93645;1196;93972;-62
2021/09/15 01:43:19;;;;;;;13.90;10.00;;;;;;;10.55;85.30;100814.52;93694;1196;80958;-79
2021/09/15 01:45:28;;;;;;;11.20;9.20;;;;;;;10.52;85.28;100811.27;93639;1196;79925;-80
2021/09/15 01:47:32;;;;;;;12.80;9.90;;;;;;;10.49;85.29;100810.20;93690;1196;97761;-80
2021/09/15 01:49:38;;;;;;;12.40;10.00;;;;;;;10.48;85.34;100811.23;93700;1196;86393;-78
2021/09/15 01:51:43;;;;;;;12.50;10.40;;;;;;;10.46;85.30;100812.92;93697;1196;93579;-82
2021/09/15 01:53:47;;;;;;;13.50;10.00;;;;;;;10.43;85.25;100810.54;93614;1196;81488;-80
2021/09/15 01:55:51;;;;;;;14.80;9.90;;;;;;;10.40;85.27;100810.95;93674;1196;80566;-81
2021/09/15 01:57:59;;;;;;;10.60;9.50;;;;;;;10.36;85.30;100814.88;93673;1196;99251;-80
2021/09/15 02:00:05;;;;;;;11.00;9.60;;;;;;;10.33;85.25;100814.05;93676;1196;88034;-81
2021/09/15 02:02:11;;;;;;;10.70;9.50;;;;;;;10.30;85.30;100815.36;93794;1196;93366;-80
2021/09/15 02:04:15;;;;;;;14.60;11.00;;;;;;;10.31;85.38;100815.55;93664;1196;78797;-80
2021/09/15 02:06:20;;;;;;;13.50;9.30;;;;;;;10.32;85.43;100815.82;93706;1196;80398;-81
2021/09/15 02:08:24;;;;;;;14.70;9.60;;;;;;;10.32;85.58;100819.40;93719;1196;97761;-81
2021/09/15 02:10:28;;;;;;;15.30;9.90;;;;;;;10.35;85.56;100815.88;93716;1196;87358;-81
2021/09/15 02:12:33;;;;;;;11.80;8.80;;;;;;;10.38;85.57;100816.51;93656;1196;94002;-81
2021/09/15 02:14:37;;;;;;;12.20;10.00;;;;;;;10.42;85.70;100818.79;93684;1196;78902;-81
2021/09/15 02:16:41;;;;;;;12.60;9.40;;;;;;;10.47;85.79;100818.73;93689;1196;80983;-80
2021/09/15 02:18:46;;;;;;;12.30;9.50;;;;;;;10.51;85.88;100819.73;93684;1196;97119;-61
2021/09/15 02:20:50;;;;;;;16.10;9.80;;;;;;;10.55;85.86;100819.29;93676;1196;88117;-61
2021/09/15 02:22:54;;;;;;;10.70;8.60;;;;;;;10.60;85.95;100821.44;93703;1196;92778;-62
2021/09/15 02:24:58;;;;;;;15.50;10.70;;;;;;;10.67;85.92;100817.08;93708;1196;79573;-61
2021/09/15 02:27:03;;;;;;;13.50;9.50;;;;;;;10.75;86.01;100816.92;93748;1196;80651;-61
2021/09/15 02:29:07;;;;;;;12.00;9.50;;;;;;;10.80;86.00;100813.98;93681;1196;98950;-82
2021/09/15 02:31:11;;;;;;;11.10;8.60;;;;;;;10.83;86.01;100814.45;93624;1196;88314;-80
2021/09/15 02:33:15;;;;;;;13.10;9.50;;;;;;;10.89;86.15;100815.21;93736;1196;93134;-74
2021/09/15 02:35:20;;;;;;;16.40;8.50;;;;;;;10.96;86.21;100817.92;93667;1196;81116;-81
2021/09/15 02:37:24;;;;;;;11.30;9.20;;;;;;;11.04;86.29;100814.52;93670;1196;81830;-80
2021/09/15 02:39:31;;;;;;;11.00;8.90;;;;;;;11.10;86.33;100811.59;93654;1196;98455;-79
2021/09/15 02:41:36;;;;;;;11.70;9.70;;;;;;;11.16;86.31;100814.27;93668;1196;86424;-78
2021/09/15 02:43:40;;;;;;;15.20;9.60;;;;;;;11.21;86.26;100809.16;93659;1196;94504;-78
2021/09/15 02:45:45;;;;;;;13.50;8.90;;;;;;;11.27;86.32;100812.98;93693;1196;81547;-77
2021/09/15 02:47:52;;;;;;;10.00;8.40;;;;;;;11.34;86.20;100811.48;93664;1196;81044;-79
2021/09/15 02:49:56;;;;;;;10.30;8.70;;;;;;;11.39;86.14;100812.23;93652;1196;99414;-78
2021/09/15 02:52:00;;;;;;;10.50;8.40;;;;;;;11.43;86.20;100814.42;93696;1196;86936;-79
2021/09/15 02:54:04;;;;;;;11.10;9.30;;;;;;;11.49;86.25;100813.85;93666;1196;94807;-78
2021/09/15 02:56:08;;;;;;;13.00;8.90;;;;;;;11.57;86.23;100814.52;93680;1196;81460;-78
2021/09/15 02:58:19;;;;;;;10.10;8.40;;;;;;;11.60;86.23;100813.43;93698;1196;82333;-71
2021/09/15 03:00:23;;;;;;;11.10;9.10;;;;;;;11.65;86.14;100820.45;93640;1196;97253;-81
2021/09/15 03:02:27;;;;;;;13.10;9.00;;;;;;;11.69;86.14;100814.73;93681;1196;87255;-81
2021/09/15 03:04:31;;;;;;;11.70;9.10;;;;;;;11.74;86.19;100819.37;93670;1196;94209;-80
2021/09/15 03:06:36;;;;;;;11.10;8.30;;;;;;;11.78;86.16;100814.72;93673;1196;79772;-80
2021/09/15 03:08:40;;;;;;;13.60;8.70;;;;;;;11.80;86.17;100808.80;93685;1196;81998;-61
2021/09/15 03:10:44;;;;;;;10.30;8.30;;;;;;;11.83;86.23;100808.59;93696;1196;97978;-61
2021/09/15 03:12:49;;;;;;;11.90;8.30;;;;;;;11.87;86.14;100805.60;93730;1196;86761;-61
2021/09/15 03:14:55;;;;;;;10.50;8.50;;;;;;;11.93;86.19;100800.92;93672;1196;94175;-63
2021/09/15 03:17:00;;;;;;;10.70;8.40;;;;;;;11.98;86.22;100799.00;93693;1196;79454;-60
2021/09/15 03:19:07;;;;;;;11.20;9.20;;;;;;;12.05;86.20;100800.49;93669;1196;81009;-76
2021/09/15 03:21:11;;;;;;;11.80;8.80;;;;;;;12.09;86.26;100797.13;93674;1198;97645;-75
2021/09/15 03:23:15;;;;;;;11.40;7.80;;;;;;;12.15;86.25;100791.79;93755;1196;88191;-71
2021/09/15 03:25:19;;;;;;;10.80;8.10;;;;;;;12.24;86.22;100789.11;93642;1196;93357;-77
2021/09/15 03:27:23;;;;;;;10.60;8.50;;;;;;;12.28;86.27;100790.55;93705;1196;77947;-77
2021/09/15 03:29:27;;;;;;;9.30;8.40;;;;;;;12.33;86.25;100786.63;93658;1182;81272;-62
2021/09/15 03:31:32;;;;;;;14.00;10.20;;;;;;;12.37;86.27;100786.52;93687;1196;98714;-60
2021/09/15 03:33:36;;;;;;;11.40;9.80;;;;;;;12.39;86.38;100789.09;93693;1196;88951;-60
2021/09/15 03:35:43;;;;;;;12.60;10.10;;;;;;;12.39;86.39;100795.50;93677;1196;94103;-60
2021/09/15 03:37:47;;;;;;;11.90;10.10;;;;;;;12.46;86.34;100794.08;93667;1196;78434;-61
2021/09/15 03:39:51;;;;;;;12.50;9.80;;;;;;;12.53;86.38;100796.15;93676;1196;82169;-62
2021/09/15 03:41:55;;;;;;;12.10;9.90;;;;;;;12.55;86.44;100795.80;93674;1196;98321;-62
2021/09/15 03:44:03;;;;;;;11.70;8.90;;;;;;;12.59;86.21;100791.87;93698;1196;87429;-77
2021/09/15 03:46:08;;;;;;;11.70;8.70;;;;;;;12.65;86.21;100791.05;93723;1196;93168;-76
2021/09/15 03:48:15;;;;;;;12.40;8.80;;;;;;;12.70;86.22;100794.14;93660;1196;77425;-74
2021/09/15 03:50:22;;;;;;;10.40;9.30;;;;;;;12.74;86.23;100792.52;93657;1198;82153;-75
2021/09/15 03:52:26;;;;;;;11.40;9.30;;;;;;;12.78;86.21;100791.62;93738;1198;98232;-76
2021/09/15 03:54:32;;;;;;;14.60;9.40;;;;;;;12.81;86.28;100791.79;93608;1198;88384;-61
2021/09/15 03:56:36;;;;;;;10.80;8.70;;;;;;;12.84;86.16;100786.20;93728;1196;95072;-63
2021/09/15 03:58:40;;;;;;;14.50;8.90;;;;;;;12.89;86.18;100785.21;93633;1196;81310;-78
2021/09/15 04:00:44;;;;;;;11.50;8.70;;;;;;;12.95;86.21;100785.33;93704;1196;81540;-77
2021/09/15 04:02:48;;;;;;;10.60;9.50;;;;;;;13.01;86.23;100785.94;93679;1196;99233;-77
2021/09/15 04:04:52;;;;;;;12.50;9.80;;;;;;;13.04;86.18;100782.95;93696;1187;88432;-78
2021/09/15 04:06:56;;;;;;;13.90;11.00;;;;;;;13.08;86.18;100782.77;93722;1196;94316;-77
2021/09/15 04:09:00;;;;;;;12.50;9.50;;;;;;;13.11;86.27;100780.55;93676;1196;81508;-77
2021/09/15 04:11:05;;;;;;;12.10;9.50;;;;;;;13.13;86.18;100776.41;93659;1196;81345;-76
2021/09/15 04:13:12;;;;;;;12.60;10.30;;;;;;;13.14;86.18;100775.98;93638;1196;97567;-76
2021/09/15 04:15:17;;;;;;;12.40;9.80;;;;;;;13.13;86.16;100772.42;93662;1196;87892;-60
2021/09/15 04:17:21;;;;;;;14.70;10.10;;;;;;;13.13;86.21;100771.99;93702;1196;92964;-61
2021/09/15 04:19:25;;;;;;;11.40;9.00;;;;;;;13.10;85.97;100771.06;93645;1196;80676;-78
2021/09/15 04:21:29;;;;;;;11.70;9.40;;;;;;;13.09;85.91;100769.10;93727;1196;82294;-77
2021/09/15 04:23:44;;;;;;;10.90;8.40;;;;;;;13.04;85.95;100767.68;93650;1196;99850;-76
2021/09/15 04:32:59;;;;;;;9.30;7.80;;;;;;;12.74;85.69;100755.08;93677;1196;81494;-76
2021/09/15 04:35:05;;;;;;;9.20;8.00;;;;;;;12.69;85.69;100756.10;93679;1196;97984;-76
2021/09/15 04:37:09;;;;;;;9.60;8.10;;;;;;;12.67;85.77;100759.63;93710;1196;87905;-80
2021/09/15 04:39:13;;;;;;;12.70;8.30;;;;;;;12.65;85.85;100764.00;93710;1196;94106;-81
2021/09/15 04:41:21;;;;;;;10.60;8.50;;;;;;;12.62;85.89;100762.75;93679;1196;81325;-80
2021/09/15 04:43:25;;;;;;;10.00;8.20;;;;;;;12.65;86.02;100760.07;93713;1196;82018;-81
2021/09/15 04:45:29;;;;;;;13.50;9.40;;;;;;;12.65;86.13;100758.23;93688;1196;98600;-80
2021/09/15 04:47:34;;;;;;;13.40;9.10;;;;;;;12.65;86.11;100761.79;93678;1196;87266;-81
2021/09/15 04:49:38;;;;;;;10.70;9.00;;;;;;;12.67;86.17;100763.38;93684;1196;93620;-81
2021/09/15 04:51:42;;;;;;;11.30;9.10;;;;;;;12.72;86.13;100765.06;93715;1196;80122;-80
2021/09/15 04:53:46;;;;;;;12.10;8.60;;;;;;;12.75;85.91;100764.84;93760;1196;81574;-79
2021/09/15 04:55:53;;;;;;;13.00;9.40;;;;;;;12.76;85.84;100766.52;93711;1196;99403;-81
2021/09/15 04:57:57;;;;;;;10.90;8.90;;;;;;;12.81;85.89;100764.52;93717;1196;87461;-78
2021/09/15 05:00:03;;;;;;;11.50;9.00;;;;;;;12.85;85.88;100770.23;93725;1196;92979;-81
2021/09/15 05:02:07;;;;;;;12.70;9.60;;;;;;;12.88;85.94;100769.34;93730;1189;78219;-78
2021/09/15 05:04:11;;;;;;;13.70;9.90;;;;;;;12.96;85.86;100777.92;93757;1196;81706;-63
2021/09/15 05:06:16;;;;;;;13.60;10.10;;;;;;;13.25;86.35;100780.02;93702;1196;98646;-63
2021/09/15 05:08:20;;;;;;;17.50;10.40;;;;;;;13.97;86.97;100781.80;93640;1196;87784;-78
2021/09/15 05:10:25;;;;;;;12.80;9.60;;;;;;;14.94;86.63;100784.34;93692;1196;92489;-78
2021/09/15 05:12:29;;;;;;;13.40;10.40;;;;;;;15.86;85.90;100783.52;93707;1196;79329;-78
2021/09/15 05:14:33;;;;;;;13.90;9.00;;;;;;;16.69;84.98;100779.30;93703;1196;81469;-61
2021/09/15 05:16:37;;;;;;;11.20;9.00;;;;;;;17.33;83.69;100778.84;93675;1196;98985;-62
2021/09/15 05:18:41;;;;;;;11.50;9.00;;;;;;;17.75;82.86;100777.87;93689;1196;87310;-61
2021/09/15 05:20:48;;;;;;;16.20;9.50;;;;;;;17.57;81.60;100778.05;93680;1196;93806;-61
2021/09/15 05:22:55;;;;;;;13.60;9.40;;;;;;;17.13;81.24;100781.07;93741;1196;79028;-62
2021/09/15 05:25:03;;;;;;;10.90;9.20;;;;;;;16.76;81.03;100782.23;93742;1196;80179;-62
2021/09/15 05:27:07;;;;;;;12.60;9.60;;;;;;;16.53;81.02;100780.17;93704;1196;99097;-62
2021/09/15 05:29:11;;;;;;;13.20;9.30;;;;;;;16.42;81.12;100781.20;93722;1196;87403;-79
2021/09/15 05:31:15;;;;;;;11.80;9.90;;;;;;;16.35;81.26;100781.27;93689;1196;95363;-79
2021/09/15 05:33:19;;;;;;;13.50;10.10;;;;;;;16.36;81.27;100779.76;93720;1196;79302;-79
2021/09/15 05:35:23;;;;;;;15.10;10.90;;;;;;;16.39;81.32;100779.45;93632;1196;80971;-79
2021/09/15 05:37:28;;;;;;;14.90;11.20;;;;;;;16.42;81.38;100776.71;93660;1196;98456;-81
2021/09/15 05:39:32;;;;;;;13.10;10.30;;;;;;;16.50;81.57;100775.66;93682;1196;87587;-80
2021/09/15 05:41:36;;;;;;;13.30;10.50;;;;;;;16.57;81.59;100777.77;93646;1196;95225;-82
2021/09/15 05:43:40;;;;;;;11.50;10.30;;;;;;;16.63;81.60;100776.11;93689;1196;80932;-85
2021/09/15 05:45:47;;;;;;;10.90;9.80;;;;;;;16.73;81.54;100776.20;93684;1196;81737;-80
2021/09/15 05:47:51;;;;;;;12.40;10.90;;;;;;;16.81;81.55;100777.50;93723;1196;99262;-80
2021/09/15 05:49:55;;;;;;;13.20;10.70;;;;;;;16.88;81.46;100779.05;93716;1196;88374;-62
2021/09/15 05:52:00;;;;;;;13.50;10.90;;;;;;;17.03;81.17;100779.39;93703;1196;94065;-62
2021/09/15 05:54:04;;;;;;;13.10;10.90;;;;;;;17.21;81.09;100783.02;93641;1196;79178;-62
2021/09/15 05:56:09;;;;;;;14.30;9.90;;;;;;;17.30;80.98;100781.21;93702;1196;80762;-62
2021/09/15 05:58:18;;;;;;;13.00;10.90;;;;;;;17.43;81.07;100777.75;93692;1196;96484;-77
2021/09/15 06:00:22;;;;;;;12.00;10.50;;;;;;;17.57;80.92;100777.23;93696;1196;87250;-81
2021/09/15 06:02:26;;;;;;;13.20;11.10;;;;;;;17.58;80.66;100773.97;93689;1196;92984;-79
2021/09/15 06:04:33;;;;;;;12.90;10.60;;;;;;;17.60;80.60;100773.58;93693;1189;78710;-77
2021/09/15 06:06:37;;;;;;;12.80;10.30;;;;;;;17.60;80.39;100776.84;93785;1196;81936;-72
2021/09/15 06:08:42;;;;;;;15.20;11.20;;;;;;;17.57;80.26;100775.15;93669;1196;98624;-74
2021/09/15 06:10:46;;;;;;;12.20;10.20;;;;;;;17.52;80.31;100771.59;93678;1196;88185;-76
2021/09/15 06:12:50;;;;;;;12.50;10.60;;;;;;;17.55;80.27;100770.80;93635;1196;93955;-71
2021/09/15 06:14:56;;;;;;;13.40;10.10;;;;;;;17.51;80.29;100771.41;93674;1197;79622;-71
2021/09/15 06:17:06;;;;;;;13.90;10.70;;;;;;;17.49;80.39;100772.39;93656;1197;80556;-72
2021/09/15 06:19:11;;;;;;;14.20;10.30;;;;;;;17.48;80.38;100774.20;93651;1197;99008;-68
2021/09/15 06:21:16;;;;;;;11.70;10.50;;;;;;;17.53;80.22;100771.33;93655;1198;87355;-68
2021/09/15 06:23:20;;;;;;;12.00;9.70;;;;;;;17.60;80.31;100768.43;93663;1197;94252;-69
2021/09/15 06:25:26;;;;;;;12.30;9.80;;;;;;;17.85;80.27;100763.95;93628;1197;81409;-68
2021/09/15 06:27:35;;;;;;;15.20;10.20;;;;;;;17.98;79.82;100758.05;93664;1197;81302;-69
2021/09/15 06:29:39;;;;;;;12.10;10.30;;;;;;;18.01;79.94;100755.68;93658;1197;97434;-71
2021/09/15 06:31:46;;;;;;;12.30;10.80;;;;;;;18.06;79.85;100760.85;93685;1198;88504;-71
2021/09/15 06:33:52;;;;;;;11.30;10.10;;;;;;;18.10;79.85;100755.79;93618;1197;94407;-69
2021/09/15 06:35:59;;;;;;;13.20;9.70;;;;;;;18.13;79.85;100753.14;93723;1196;81154;-68
2021/09/15 06:38:03;;;;;;;14.60;9.50;;;;;;;18.21;79.87;100750.63;93726;1196;80560;-68
2021/09/15 06:40:11;;;;;;;11.80;9.00;;;;;;;18.30;79.77;100751.48;93735;1196;97426;-68
2021/09/15 06:42:16;;;;;;;11.60;9.00;;;;;;;18.40;79.51;100750.50;93674;1196;86520;-67
2021/09/15 06:44:21;;;;;;;12.60;9.00;;;;;;;18.44;79.35;100745.14;93670;1196;94686;-70
2021/09/15 06:46:25;;;;;;;10.70;8.80;;;;;;;18.46;79.36;100742.63;93632;1198;79702;-71
2021/09/15 06:48:29;;;;;;;11.40;9.40;;;;;;;18.53;79.23;100740.21;93696;1196;81861;-68
2021/09/15 06:50:33;;;;;;;19.10;16.10;;;;;;;18.57;79.10;100740.11;93594;1198;99433;-66
2021/09/15 06:52:38;;;;;;;14.10;9.70;;;;;;;18.66;78.94;100736.35;93745;1196;86512;-67
2021/09/15 06:54:48;;;;;;;74.50;61.40;;;;;;;18.71;78.81;100734.67;93675;1196;92975;-67
2021/09/15 06:56:53;;;;;;;21.40;16.80;;;;;;;18.77;78.68;100729.48;93693;1196;78207;-69
2021/09/15 06:59:00;;;;;;;13.20;11.10;;;;;;;18.85;78.38;100726.95;93683;1196;81515;-67
2021/09/15 07:01:04;;;;;;;10.90;9.00;;;;;;;18.91;78.11;100726.14;93673;1196;98960;-67
2021/09/15 07:03:08;;;;;;;11.20;9.90;;;;;;;18.98;78.04;100728.79;93621;1197;87708;-67
2021/09/15 07:05:17;;;;;;;11.80;9.60;;;;;;;19.06;77.81;100730.09;93598;1198;93639;-71
2021/09/15 07:07:22;;;;;;;12.50;10.20;;;;;;;19.22;77.71;100725.64;93667;1196;78474;-72
2021/09/15 07:09:26;;;;;;;13.50;10.10;;;;;;;19.34;77.46;100730.27;93627;1198;82089;-72
2021/09/15 07:11:30;;;;;;;15.80;11.00;;;;;;;19.33;76.84;100725.83;93600;1197;98638;-71
2021/09/15 07:13:34;;;;;;;13.80;10.70;;;;;;;19.67;77.31;100728.09;93646;1198;86948;-68
2021/09/15 07:15:38;;;;;;;11.00;9.80;;;;;;;20.10;76.67;100729.34;93704;1196;94524;-67
2021/09/15 07:17:44;;;;;;;13.50;10.00;;;;;;;20.31;76.76;100730.98;93639;1197;78059;-69
2021/09/15 07:19:48;;;;;;;11.60;9.40;;;;;;;20.40;76.35;100725.36;93679;1197;82544;-70
2021/09/15 07:21:52;;;;;;;16.70;9.30;;;;;;;20.42;75.95;100725.89;93721;1196;97286;-72
2021/09/15 07:23:56;;;;;;;11.10;8.50;;;;;;;20.37;75.55;100724.90;93732;1196;87764;-70
2021/09/15 07:26:00;;;;;;;9.80;8.80;;;;;;;20.40;75.24;100727.49;93664;1196;95206;-80
2021/09/15 07:28:05;;;;;;;12.70;9.30;;;;;;;20.38;74.88;100730.59;93772;1196;76956;-70
2021/09/15 07:30:12;;;;;;;11.80;9.40;;;;;;;20.34;74.81;100733.58;93714;1196;81716;-70
2021/09/15 07:32:16;;;;;;;13.30;9.30;;;;;;;20.36;74.45;100727.36;93711;1196;97546;-68
2021/09/15 07:34:20;;;;;;;9.00;8.00;;;;;;;20.33;74.38;100725.50;93709;1196;87308;-72
2021/09/15 07:36:25;;;;;;;10.40;8.00;;;;;;;20.31;74.50;100723.92;93688;1196;92863;-70
2021/09/15 07:38:29;;;;;;;13.60;8.90;;;;;;;20.30;74.04;100720.00;93724;1196;82273;-70
2021/09/15 07:40:34;;;;;;;12.60;8.10;;;;;;;20.30;73.93;100715.77;93720;1196;81123;-68
2021/09/15 07:42:42;;;;;;;10.70;7.90;;;;;;;20.35;73.98;100718.52;93699;1196;99099;-69
2021/09/15 07:44:51;;;;;;;11.90;9.30;;;;;;;20.42;73.79;100712.60;93706;1196;88312;-71
2021/09/15 07:46:55;;;;;;;10.20;8.10;;;;;;;20.43;73.50;100712.52;93689;1196;93210;-72
2021/09/15 07:48:59;;;;;;;10.40;8.30;;;;;;;20.54;73.62;100709.30;93653;1198;78444;-69
2021/09/15 07:51:04;;;;;;;11.00;8.90;;;;;;;20.62;73.16;100709.50;93650;1197;81124;-70
2021/09/15 07:53:08;;;;;;;10.50;8.40;;;;;;;20.59;72.89;100709.55;93710;1196;97128;-70
2021/09/15 07:55:14;;;;;;;9.50;8.50;;;;;;;20.66;72.64;100707.34;93661;1197;88844;-71
2021/09/15 07:57:21;;;;;;;10.40;8.70;;;;;;;20.73;72.34;100705.46;93672;1198;92583;-70
2021/09/15 07:59:26;;;;;;;11.80;8.40;;;;;;;20.88;72.51;100703.74;93635;1196;80237;-70
2021/09/15 08:01:30;;;;;;;11.90;7.80;;;;;;;21.23;72.52;100704.21;93680;1198;81618;-69
2021/09/15 08:03:37;;;;;;;9.70;8.60;;;;;;;21.84;72.14;100703.67;93642;1197;97792;-70
2021/09/15 08:05:41;;;;;;;11.80;8.30;;;;;;;22.54;71.46;100706.15;93685;1196;86578;-69
2021/09/15 08:07:49;;;;;;;9.80;7.90;;;;;;;23.34;70.52;100710.71;93702;1197;94275;-68
2021/09/15 08:09:54;;;;;;;10.50;8.20;;;;;;;24.38;69.23;100708.61;93630;1198;79373;-71
2021/09/15 08:11:58;;;;;;;9.10;7.00;;;;;;;25.85;68.50;100708.58;93720;1197;81398;-72
2021/09/15 08:14:02;;;;;;;8.90;6.90;;;;;;;27.23;66.34;100708.62;93713;1196;98871;-71
2021/09/15 08:16:07;;;;;;;9.00;6.20;;;;;;;28.45;64.09;100703.71;91360;1196;3077370;-70
2021/09/15 08:18:20;;;;;;;7.80;6.00;;;;;;;29.49;62.30;100702.50;93731;1196;95273;-71
2021/09/15 08:20:27;;;;;;;7.80;6.10;;;;;;;30.28;59.66;100701.59;93690;1196;79004;-69
2021/09/15 08:22:32;;;;;;;6.80;5.70;;;;;;;30.89;57.36;100703.23;93702;1197;81418;-70
2021/09/15 08:24:39;;;;;;;8.40;6.10;;;;;;;31.23;55.96;100709.19;93660;1197;98453;-70
2021/09/15 08:26:46;;;;;;;7.90;6.40;;;;;;;31.55;54.33;100715.10;93721;1197;87404;-71
2021/09/15 08:28:50;;;;;;;6.70;6.10;;;;;;;31.92;53.18;100720.83;93691;1197;93464;-69
2021/09/15 08:30:54;;;;;;;6.70;5.80;;;;;;;32.19;51.76;100721.52;93709;1196;79334;-70
2021/09/15 08:32:59;;;;;;;7.50;5.20;;;;;;;32.41;50.72;100724.31;93665;1198;82487;-75
2021/09/15 08:35:04;;;;;;;6.20;5.30;;;;;;;32.41;49.41;100727.20;93718;1196;97619;-70
2021/09/15 08:37:09;;;;;;;6.90;5.40;;;;;;;32.43;47.62;100729.74;93702;1197;86840;-72
2021/09/15 08:39:13;;;;;;;5.20;4.70;;;;;;;32.51;47.86;100733.41;93749;1196;92620;-73
2021/09/15 08:41:18;;;;;;;6.30;4.60;;;;;;;32.74;47.28;100735.98;93749;1196;78532;-72
2021/09/15 08:43:23;;;;;;;7.70;4.90;;;;;;;32.93;45.87;100734.20;93692;1196;81257;-71
2021/09/15 08:45:27;;;;;;;7.20;4.30;;;;;;;32.87;45.47;100736.27;93721;1197;97636;-71
2021/09/15 08:47:33;;;;;;;5.70;3.80;;;;;;;32.97;45.40;100731.92;93691;1196;87403;-70
2021/09/15 08:49:38;;;;;;;5.00;3.60;;;;;;;33.10;44.31;100730.95;93723;1196;93550;-73
2021/09/15 08:51:42;;;;;;;4.00;3.60;;;;;;;33.08;43.94;100731.09;93724;1196;80750;-71
2021/09/15 08:53:46;;;;;;;4.10;3.70;;;;;;;33.04;43.69;100732.54;93715;1182;81266;-69
2021/09/15 08:55:51;;;;;;;4.70;4.20;;;;;;;33.05;42.85;100729.10;93668;1196;98780;-62
2021/09/15 08:57:55;;;;;;;4.20;3.70;;;;;;;33.19;42.90;100728.46;93682;1196;89512;-63
2021/09/15 09:00:00;;;;;;;4.70;4.10;;;;;;;33.29;42.59;100729.55;93637;1197;92873;-75
2021/09/15 09:02:10;;;;;;;6.00;4.70;;;;;;;33.34;42.29;100721.71;93736;1196;79319;-75
2021/09/15 09:04:17;;;;;;;6.10;5.00;;;;;;;33.25;41.96;100723.48;93671;1196;82206;-75
2021/09/15 09:06:24;;;;;;;4.80;4.10;;;;;;;33.13;41.13;100727.88;93649;1196;98218;-64
2021/09/15 09:08:28;;;;;;;4.40;4.00;;;;;;;33.11;41.17;100725.02;93629;1197;86776;-75
2021/09/15 09:10:34;;;;;;;5.10;4.60;;;;;;;32.94;41.18;100720.73;93639;1196;94236;-75
2021/09/15 09:12:41;;;;;;;6.50;5.30;;;;;;;32.93;40.99;100723.42;93662;1198;78551;-75
2021/09/15 09:14:45;;;;;;;7.10;5.10;;;;;;;32.39;40.55;100723.73;93685;1197;80391;-74
2021/09/15 09:16:51;;;;;;;5.00;4.40;;;;;;;31.80;40.50;100716.15;93621;1197;98653;-73
2021/09/15 09:19:01;;;;;;;6.10;4.60;;;;;;;31.73;40.71;100712.77;93642;1197;87593;-75
2021/09/15 09:21:24;;;;;;;7.60;4.90;;;;;;;31.74;40.96;100706.70;93654;1198;95817;-76
2021/09/15 09:23:29;;;;;;;5.60;4.60;;;;;;;31.78;40.50;100710.79;93623;1198;78651;-64
2021/09/15 09:25:37;;;;;;;7.30;5.00;;;;;;;31.88;40.06;100714.40;93689;1197;81197;-63
2021/09/15 09:27:41;;;;;;;7.40;4.70;;;;;;;32.08;39.89;100712.22;93716;1196;98688;-64
2021/09/15 09:29:45;;;;;;;5.80;4.50;;;;;;;32.11;39.81;100711.34;93696;1196;87818;-63
2021/09/15 09:32:05;;;;;;;6.90;4.20;;;;;;;31.98;39.77;100711.83;93712;1196;93309;-63
2021/09/15 09:34:12;;;;;;;6.50;4.30;;;;;;;31.71;39.91;100712.20;93638;1197;80306;-63
2021/09/15 09:36:16;;;;;;;5.70;4.40;;;;;;;31.42;39.29;100712.05;93633;1197;82253;-62
2021/09/15 09:38:31;;;;;;;4.30;3.70;;;;;;;31.33;39.49;100711.33;93613;1198;98963;-74
2021/09/15 09:40:35;;;;;;;6.70;3.90;;;;;;;31.38;39.38;100713.81;93698;1196;88735;-77
2021/09/15 09:42:40;;;;;;;4.60;4.00;;;;;;;31.12;39.18;100708.13;93638;1197;94990;-75